createdAt,value
2018-11-26T00:01:25.212Z,4.56
2018-11-26T00:03:53.537Z,4.56
2018-11-26T00:06:21.793Z,4.52
2018-11-26T00:08:49.977Z,4.52
2018-11-26T00:11:30.234Z,4.49
2018-11-26T00:13:58.424Z,4.50
2018-11-26T00:16:26.725Z,4.46
2018-11-26T00:18:54.859Z,4.46
2018-11-26T00:21:23.013Z,4.48
2018-11-26T00:23:51.223Z,4.45
2018-11-26T00:26:19.396Z,4.47
2018-11-26T00:28:47.525Z,4.45
2018-11-26T00:31:15.680Z,4.44
2018-11-26T00:33:44.532Z,4.43
2018-11-26T00:36:12.699Z,4.45
2018-11-26T00:38:40.806Z,4.47
2018-11-26T00:41:08.987Z,4.50
2018-11-26T00:43:37.160Z,4.48
2018-11-26T00:46:05.526Z,4.54
2018-11-26T00:48:33.685Z,4.54
2018-11-26T00:51:01.844Z,4.47
2018-11-26T00:53:30.018Z,4.47
2018-11-26T00:55:58.209Z,4.53
2018-11-26T00:58:26.392Z,4.51
2018-11-26T01:00:54.536Z,4.47
2018-11-26T01:03:22.673Z,4.45
2018-11-26T01:05:50.870Z,4.45
2018-11-26T01:08:19.049Z,4.45
2018-11-26T01:10:47.389Z,4.45
2018-11-26T01:13:16.026Z,4.45
2018-11-26T01:15:44.145Z,4.49
2018-11-26T01:18:12.322Z,4.47
2018-11-26T01:20:40.469Z,4.49
2018-11-26T01:23:08.671Z,4.51
2018-11-26T01:25:36.807Z,4.51
2018-11-26T01:28:05.036Z,4.52
2018-11-26T01:30:33.207Z,4.52
2018-11-26T01:33:01.416Z,4.55
2018-11-26T01:35:29.557Z,4.53
2018-11-26T01:37:57.766Z,4.55
2018-11-26T01:40:32.052Z,4.55
2018-11-26T01:43:00.196Z,4.54
2018-11-26T01:45:28.368Z,4.55
2018-11-26T01:47:56.528Z,4.55
2018-11-26T01:50:24.755Z,4.53
2018-11-26T01:52:53.000Z,4.58
2018-11-26T01:55:21.172Z,4.58
2018-11-26T01:57:49.396Z,4.55
2018-11-26T02:00:19.241Z,4.57
2018-11-26T02:02:48.179Z,4.60
2018-11-26T02:05:16.420Z,4.60
2018-11-26T02:07:44.718Z,4.56
2018-11-26T02:10:13.922Z,4.54
2018-11-26T02:12:42.105Z,4.53
2018-11-26T02:15:12.391Z,4.53
2018-11-26T02:17:41.092Z,4.50
2018-11-26T02:20:10.198Z,4.55
2018-11-26T02:22:38.545Z,4.56
2018-11-26T02:25:08.185Z,4.52
2018-11-26T02:27:36.432Z,4.51
2018-11-26T02:30:04.931Z,4.53
2018-11-26T02:32:33.044Z,4.48
2018-11-26T02:35:01.258Z,4.47
2018-11-26T02:37:29.396Z,4.46
2018-11-26T02:39:57.521Z,4.46
2018-11-26T02:42:25.709Z,4.47
2018-11-26T02:44:53.936Z,4.46
2018-11-26T02:47:22.120Z,4.44
2018-11-26T02:49:50.258Z,4.45
2018-11-26T02:52:18.392Z,4.43
2018-11-26T02:54:46.737Z,4.46
2018-11-26T02:57:14.975Z,4.43
2018-11-26T02:59:43.202Z,4.44
2018-11-26T03:02:11.324Z,4.44
2018-11-26T03:04:39.473Z,4.44
2018-11-26T03:07:07.726Z,4.45
2018-11-26T03:09:35.867Z,4.41
2018-11-26T03:12:04.002Z,4.41
2018-11-26T03:14:32.172Z,4.40
2018-11-26T03:17:00.306Z,4.41
2018-11-26T03:19:28.453Z,4.38
2018-11-26T03:21:56.818Z,4.43
2018-11-26T03:24:24.984Z,4.38
2018-11-26T03:26:53.248Z,4.40
2018-11-26T03:29:22.037Z,4.36
2018-11-26T03:31:50.245Z,4.31
2018-11-26T03:34:18.425Z,4.30
2018-11-26T03:36:46.642Z,4.31
2018-11-26T03:39:15.067Z,4.29
2018-11-26T03:41:43.248Z,4.25
2018-11-26T03:44:11.429Z,4.24
2018-11-26T03:46:39.618Z,4.20
2018-11-26T03:49:07.796Z,4.19
2018-11-26T03:51:36.005Z,4.19
2018-11-26T03:54:04.207Z,4.16
2018-11-26T03:56:32.346Z,4.14
2018-11-26T03:59:00.484Z,4.13
2018-11-26T04:01:28.778Z,4.14
2018-11-26T04:03:57.033Z,4.11
2018-11-26T04:06:25.210Z,4.10
2018-11-26T04:08:53.664Z,4.14
2018-11-26T04:11:21.892Z,4.11
2018-11-26T04:13:50.081Z,4.15
2018-11-26T04:16:18.381Z,4.17
2018-11-26T04:18:46.595Z,4.18
2018-11-26T04:21:14.830Z,4.20
2018-11-26T04:23:43.037Z,4.18
2018-11-26T04:26:11.202Z,4.16
2018-11-26T04:28:39.340Z,4.18
2018-11-26T04:31:07.689Z,4.18
2018-11-26T04:33:35.928Z,4.18
2018-11-26T04:36:04.165Z,4.16
2018-11-26T04:38:32.926Z,4.15
2018-11-26T04:41:01.144Z,4.14
2018-11-26T04:43:29.412Z,4.15
2018-11-26T04:45:57.560Z,4.14
2018-11-26T04:48:25.808Z,4.17
2018-11-26T04:50:54.066Z,4.19
2018-11-26T04:53:22.232Z,4.20
2018-11-26T04:55:50.414Z,4.20
2018-11-26T04:58:18.658Z,4.22
2018-11-26T05:00:46.829Z,4.23
2018-11-26T05:03:15.259Z,4.27
2018-11-26T05:05:43.428Z,4.28
2018-11-26T05:08:11.561Z,4.29
2018-11-26T05:10:39.696Z,4.34
2018-11-26T05:13:07.841Z,4.36
2018-11-26T05:15:36.045Z,4.37
2018-11-26T05:18:04.248Z,4.35
2018-11-26T05:20:32.394Z,4.39
2018-11-26T05:23:00.557Z,4.39
2018-11-26T05:25:29.896Z,4.41
2018-11-26T05:27:59.025Z,4.43
2018-11-26T05:30:27.343Z,4.43
2018-11-26T05:32:55.506Z,4.47
2018-11-26T05:35:23.680Z,4.45
2018-11-26T05:37:51.898Z,4.50
2018-11-26T05:40:20.120Z,4.48
2018-11-26T05:42:48.381Z,4.45
2018-11-26T05:45:17.107Z,4.46
2018-11-26T05:47:45.436Z,4.46
2018-11-26T05:50:14.880Z,4.45
2018-11-26T05:52:43.156Z,4.45
2018-11-26T05:55:15.131Z,4.42
2018-11-26T05:57:43.714Z,4.43
2018-11-26T06:00:14.567Z,4.42
2018-11-26T06:02:42.763Z,4.47
2018-11-26T06:05:10.919Z,4.43
2018-11-26T06:07:39.162Z,4.44
2018-11-26T06:10:08.745Z,4.43
2018-11-26T06:12:36.874Z,4.42
2018-11-26T06:15:06.823Z,4.41
2018-11-26T06:17:34.948Z,4.43
2018-11-26T06:20:03.349Z,4.40
2018-11-26T06:22:31.497Z,4.44
2018-11-26T06:24:59.645Z,4.41
2018-11-26T06:27:27.812Z,4.42
2018-11-26T06:29:55.973Z,4.44
2018-11-26T06:32:29.905Z,4.40
2018-11-26T06:34:58.110Z,4.41
2018-11-26T06:37:26.285Z,4.37
2018-11-26T06:39:54.449Z,4.36
2018-11-26T06:42:22.666Z,4.40
2018-11-26T06:44:50.848Z,4.36
2018-11-26T06:47:18.997Z,4.41
2018-11-26T06:49:47.149Z,4.40
2018-11-26T06:52:15.295Z,4.42
2018-11-26T06:54:43.464Z,4.39
2018-11-26T06:57:11.593Z,4.42
2018-11-26T06:59:39.820Z,4.40
2018-11-26T07:02:08.029Z,4.43
2018-11-26T07:04:36.209Z,4.45
2018-11-26T07:07:04.426Z,4.42
2018-11-26T07:09:32.628Z,4.42
2018-11-26T07:12:00.805Z,4.40
2018-11-26T07:14:28.976Z,4.42
2018-11-26T07:16:57.129Z,4.42
2018-11-26T07:19:25.255Z,4.36
2018-11-26T07:21:53.538Z,4.38
2018-11-26T07:24:21.741Z,4.36
2018-11-26T07:26:49.852Z,4.38
2018-11-26T07:29:24.009Z,4.42
2018-11-26T07:31:46.252Z,4.38
2018-11-26T07:34:14.379Z,4.41
2018-11-26T07:36:42.536Z,4.40
2018-11-26T07:39:10.717Z,4.37
2018-11-26T07:41:38.884Z,4.41
2018-11-26T07:44:09.101Z,4.42
2018-11-26T07:46:37.266Z,4.48
2018-11-26T07:49:06.399Z,4.46
2018-11-26T07:51:34.832Z,4.45
2018-11-26T07:54:03.040Z,4.44
2018-11-26T07:56:31.960Z,4.49
2018-11-26T07:59:00.108Z,4.44
2018-11-26T08:01:28.277Z,4.48
2018-11-26T08:03:56.492Z,4.52
2018-11-26T08:06:24.785Z,4.51
2018-11-26T08:08:52.973Z,4.50
2018-11-26T08:11:21.109Z,4.47
2018-11-26T08:13:49.253Z,4.45
2018-11-26T08:16:17.440Z,4.47
2018-11-26T08:18:45.601Z,4.48
2018-11-26T08:21:13.761Z,4.52
2018-11-26T08:23:41.908Z,4.45
2018-11-26T08:26:10.140Z,4.45
2018-11-26T08:28:38.263Z,4.46
2018-11-26T08:31:06.442Z,4.49
2018-11-26T08:33:34.908Z,4.49
2018-11-26T08:36:08.396Z,4.48
2018-11-26T08:38:41.987Z,4.44
2018-11-26T08:41:14.983Z,4.44
2018-11-26T08:43:49.088Z,4.44
2018-11-26T08:46:22.777Z,4.46
2018-11-26T08:48:56.260Z,4.43
2018-11-26T08:51:24.424Z,4.46
2018-11-26T08:53:52.601Z,4.45
2018-11-26T08:56:20.829Z,4.43
2018-11-26T08:58:49.018Z,4.49
2018-11-26T09:01:17.548Z,4.47
2018-11-26T09:03:49.165Z,4.47
2018-11-26T09:06:17.364Z,4.47
2018-11-26T09:08:45.505Z,4.48
2018-11-26T09:11:13.654Z,4.47
2018-11-26T09:13:41.785Z,4.46
2018-11-26T09:16:09.923Z,4.42
2018-11-26T09:18:38.059Z,4.46
2018-11-26T09:21:06.318Z,4.48
2018-11-26T09:23:34.493Z,4.48
2018-11-26T09:26:02.677Z,4.50
2018-11-26T09:28:31.072Z,4.48
2018-11-26T09:30:59.227Z,4.51
2018-11-26T09:33:27.381Z,4.46
2018-11-26T09:35:55.564Z,4.49
2018-11-26T09:38:23.749Z,4.50
2018-11-26T09:40:51.915Z,4.48
2018-11-26T09:43:20.091Z,4.53
2018-11-26T09:45:48.250Z,4.56
2018-11-26T09:48:16.376Z,4.59
2018-11-26T09:50:44.578Z,4.54
2018-11-26T09:53:12.720Z,4.48
2018-11-26T09:55:41.278Z,4.48
2018-11-26T09:58:09.390Z,4.44
2018-11-26T10:00:37.517Z,4.40
2018-11-26T10:03:05.837Z,4.24
2018-11-26T10:05:34.009Z,4.27
2018-11-26T10:08:02.140Z,4.25
2018-11-26T10:10:30.266Z,4.14
2018-11-26T10:12:58.502Z,4.13
2018-11-26T10:15:27.361Z,4.19
2018-11-26T10:17:55.521Z,4.25
2018-11-26T10:20:23.755Z,4.32
2018-11-26T10:22:53.188Z,4.31
2018-11-26T10:25:22.242Z,4.34
2018-11-26T10:27:50.533Z,4.34
2018-11-26T10:30:20.164Z,4.39
2018-11-26T10:32:49.264Z,4.40
2018-11-26T10:35:18.359Z,4.45
2018-11-26T10:37:46.656Z,4.52
2018-11-26T10:40:18.096Z,4.55
2018-11-26T10:42:46.306Z,4.61
2018-11-26T10:45:15.560Z,4.62
2018-11-26T10:47:43.741Z,4.60
2018-11-26T10:50:13.902Z,4.72
2018-11-26T10:52:43.488Z,4.67
2018-11-26T10:55:13.224Z,4.66
2018-11-26T10:57:41.413Z,4.67
2018-11-26T11:00:16.191Z,4.67
2018-11-26T11:02:44.448Z,4.71
2018-11-26T11:05:12.600Z,4.74
2018-11-26T11:07:40.768Z,4.73
2018-11-26T11:10:25.264Z,4.71
2018-11-26T11:12:53.445Z,4.74
2018-11-26T11:15:21.613Z,4.75
2018-11-26T11:17:49.832Z,4.82
2018-11-26T11:20:19.218Z,4.84
2018-11-26T11:22:47.366Z,4.85
2018-11-26T11:25:16.576Z,4.83
2018-11-26T11:27:44.747Z,4.75
2018-11-26T11:30:17.927Z,4.80
2018-11-26T11:32:46.159Z,4.80
2018-11-26T11:35:14.943Z,4.82
2018-11-26T11:37:43.886Z,4.88
2018-11-26T11:40:18.283Z,4.91
2018-11-26T11:42:46.529Z,4.91
2018-11-26T11:45:14.884Z,4.90
2018-11-26T11:47:43.189Z,4.91
2018-11-26T11:50:12.343Z,4.95
2018-11-26T11:52:40.528Z,4.86
2018-11-26T11:55:12.058Z,4.86
2018-11-26T11:57:40.257Z,4.72
2018-11-26T12:00:23.977Z,4.67
2018-11-26T12:02:52.179Z,4.55
2018-11-26T12:05:20.307Z,4.50
2018-11-26T12:07:48.474Z,4.52
2018-11-26T12:10:16.596Z,4.51
2018-11-26T12:12:44.811Z,4.47
2018-11-26T12:15:14.325Z,4.45
2018-11-26T12:17:43.183Z,4.48
2018-11-26T12:20:12.426Z,4.51
2018-11-26T12:22:40.761Z,4.44
2018-11-26T12:25:24.867Z,4.48
2018-11-26T12:27:53.150Z,4.54
2018-11-26T12:30:23.388Z,4.50
2018-11-26T12:32:52.298Z,4.54
2018-11-26T12:35:20.535Z,4.50
2018-11-26T12:37:48.814Z,4.44
2018-11-26T12:40:22.376Z,4.35
2018-11-26T12:42:52.921Z,4.35
2018-11-26T12:45:24.155Z,4.35
2018-11-26T12:47:53.302Z,4.34
2018-11-26T12:50:21.565Z,4.47
2018-11-26T12:52:49.801Z,4.44
2018-11-26T12:55:18.957Z,4.43
2018-11-26T12:57:48.177Z,4.45
2018-11-26T13:00:17.500Z,4.43
2018-11-26T13:02:46.842Z,4.42
2018-11-26T13:05:16.325Z,4.48
2018-11-26T13:07:44.525Z,4.45
2018-11-26T13:10:16.806Z,4.49
2018-11-26T13:12:45.474Z,4.40
2018-11-26T13:15:17.786Z,4.43
2018-11-26T13:17:46.158Z,4.45
2018-11-26T13:20:17.390Z,4.40
2018-11-26T13:22:45.738Z,4.46
2018-11-26T13:25:17.065Z,4.44
2018-11-26T13:27:54.104Z,4.37
2018-11-26T13:30:30.610Z,4.44
2018-11-26T13:32:59.975Z,4.43
2018-11-26T13:35:28.134Z,4.41
2018-11-26T13:37:56.343Z,4.47
2018-11-26T13:40:24.634Z,4.43
2018-11-26T13:42:52.932Z,4.47
2018-11-26T13:45:25.356Z,4.45
2018-11-26T13:47:53.786Z,4.49
2018-11-26T13:50:33.978Z,4.43
2018-11-26T13:53:02.365Z,4.43
2018-11-26T13:55:30.551Z,4.45
2018-11-26T13:57:58.845Z,4.43
2018-11-26T14:00:26.923Z,4.48
2018-11-26T14:02:55.077Z,4.46
2018-11-26T14:05:23.227Z,4.50
2018-11-26T14:07:51.518Z,4.45
2018-11-26T14:10:22.712Z,4.48
2018-11-26T14:12:52.794Z,4.46
2018-11-26T14:15:21.002Z,4.42
2018-11-26T14:17:49.236Z,4.46
2018-11-26T14:20:17.580Z,4.42
2018-11-26T14:22:45.776Z,4.42
2018-11-26T14:25:16.054Z,4.44
2018-11-26T14:27:44.765Z,4.39
2018-11-26T14:30:21.755Z,4.42
2018-11-26T14:32:50.155Z,4.39
2018-11-26T14:35:18.386Z,4.41
2018-11-26T14:37:50.654Z,4.37
2018-11-26T14:40:20.547Z,4.30
2018-11-26T14:42:49.008Z,4.31
2018-11-26T14:45:17.222Z,4.25
2018-11-26T14:47:45.523Z,4.21
2018-11-26T14:50:14.753Z,4.13
2018-11-26T14:52:43.997Z,4.12
2018-11-26T14:55:14.505Z,4.08
2018-11-26T14:57:42.646Z,4.07
2018-11-26T15:00:12.745Z,4.04
2018-11-26T15:02:41.003Z,4.01
2018-11-26T15:05:09.381Z,4.00
2018-11-26T15:07:37.599Z,4.01
2018-11-26T15:10:08.231Z,3.98
2018-11-26T15:12:36.386Z,3.98
2018-11-26T15:15:05.441Z,3.94
2018-11-26T15:17:33.594Z,3.96
2018-11-26T15:20:01.801Z,3.96
2018-11-26T15:22:30.459Z,3.97
2018-11-26T15:24:58.834Z,3.96
2018-11-26T15:27:27.068Z,3.94
2018-11-26T15:29:55.267Z,3.93
2018-11-26T15:32:23.468Z,3.91
2018-11-26T15:34:51.668Z,3.94
2018-11-26T15:37:19.825Z,3.92
2018-11-26T15:39:48.040Z,3.91
2018-11-26T15:42:17.229Z,3.90
2018-11-26T15:44:45.428Z,3.97
2018-11-26T15:47:13.616Z,3.91
2018-11-26T15:49:42.358Z,3.92
2018-11-26T15:52:09.941Z,3.90
2018-11-26T15:54:38.171Z,3.91
2018-11-26T15:57:06.426Z,3.90
2018-11-26T15:59:34.626Z,3.89
2018-11-26T16:02:02.893Z,3.92
2018-11-26T16:04:31.103Z,3.91
2018-11-26T16:06:59.267Z,3.94
2018-11-26T16:09:27.449Z,3.91
2018-11-26T16:11:55.611Z,3.93
2018-11-26T16:14:23.771Z,3.93
2018-11-26T16:16:52.268Z,3.95
2018-11-26T16:19:20.422Z,3.94
2018-11-26T16:21:48.805Z,3.95
2018-11-26T16:24:16.990Z,3.96
2018-11-26T16:26:45.188Z,3.95
2018-11-26T16:29:13.355Z,3.95
2018-11-26T16:31:41.603Z,3.95
2018-11-26T16:34:10.063Z,3.94
2018-11-26T16:36:38.336Z,3.99
2018-11-26T16:39:08.347Z,3.95
2018-11-26T16:41:36.618Z,3.94
2018-11-26T16:44:04.998Z,3.96
2018-11-26T16:46:33.145Z,3.93
2018-11-26T16:49:01.317Z,3.94
2018-11-26T16:51:29.592Z,4.01
2018-11-26T16:53:57.734Z,3.99
2018-11-26T16:56:25.924Z,3.99
2018-11-26T16:58:54.379Z,3.99
2018-11-26T17:01:22.506Z,3.95
2018-11-26T17:03:50.698Z,3.95
2018-11-26T17:06:18.848Z,3.99
2018-11-26T17:08:47.028Z,3.95
2018-11-26T17:11:15.297Z,3.96
2018-11-26T17:13:43.430Z,3.96
2018-11-26T17:16:11.739Z,3.97
2018-11-26T17:18:39.895Z,4.05
2018-11-26T17:21:08.093Z,3.98
2018-11-26T17:23:36.234Z,3.99
2018-11-26T17:26:04.532Z,3.99
2018-11-26T17:28:32.685Z,3.99
2018-11-26T17:31:00.834Z,3.98
2018-11-26T17:33:28.994Z,4.02
2018-11-26T17:35:57.206Z,4.04
2018-11-26T17:38:25.439Z,4.01
2018-11-26T17:40:53.783Z,4.08
2018-11-26T17:43:22.540Z,4.08
2018-11-26T17:45:50.736Z,4.00
2018-11-26T17:48:18.902Z,4.03
2018-11-26T17:50:47.104Z,4.02
2018-11-26T17:53:18.528Z,3.97
2018-11-26T17:55:49.831Z,4.02
2018-11-26T17:58:18.818Z,4.03
2018-11-26T18:00:49.029Z,4.09
2018-11-26T18:03:17.329Z,4.11
2018-11-26T18:05:45.480Z,4.13
2018-11-26T18:08:15.219Z,4.06
2018-11-26T18:10:43.428Z,4.00
2018-11-26T18:13:11.583Z,4.01
2018-11-26T18:15:39.782Z,4.06
2018-11-26T18:18:12.338Z,4.09
2018-11-26T18:20:40.648Z,4.05
2018-11-26T18:23:09.705Z,4.04
2018-11-26T18:25:38.006Z,4.07
2018-11-26T18:28:10.083Z,4.06
2018-11-26T18:30:43.674Z,4.09
2018-11-26T18:33:11.928Z,4.10
2018-11-26T18:35:40.874Z,4.06
2018-11-26T18:38:09.145Z,4.12
2018-11-26T18:40:38.461Z,4.16
2018-11-26T18:43:07.805Z,4.13
2018-11-26T18:45:36.198Z,4.03
2018-11-26T18:48:04.382Z,4.01
2018-11-26T18:50:32.566Z,4.08
2018-11-26T18:53:00.947Z,4.05
2018-11-26T18:55:29.342Z,4.05
2018-11-26T18:57:57.733Z,4.05
2018-11-26T19:00:28.560Z,4.07
2018-11-26T19:02:57.535Z,4.09
2018-11-26T19:05:26.286Z,4.12
2018-11-26T19:07:54.678Z,4.13
2018-11-26T19:10:27.381Z,4.13
2018-11-26T19:13:01.957Z,4.15
2018-11-26T19:15:34.890Z,4.07
2018-11-26T19:18:12.106Z,4.07
2018-11-26T19:20:40.270Z,4.11
2018-11-26T19:23:08.425Z,4.13
2018-11-26T19:25:36.738Z,4.15
2018-11-26T19:28:05.008Z,4.18
2018-11-26T19:30:33.195Z,4.19
2018-11-26T19:33:01.325Z,4.20
2018-11-26T19:35:29.534Z,4.22
2018-11-26T19:37:57.730Z,4.26
2018-11-26T19:40:25.865Z,4.23
2018-11-26T19:42:54.246Z,4.27
2018-11-26T19:45:22.397Z,4.28
2018-11-26T19:47:50.554Z,4.24
2018-11-26T19:50:20.285Z,4.31
2018-11-26T19:52:49.867Z,4.26
2018-11-26T19:55:22.017Z,4.29
2018-11-26T19:57:50.551Z,4.33
2018-11-26T20:00:23.894Z,4.34
2018-11-26T20:03:00.929Z,4.33
2018-11-26T20:05:38.760Z,4.38
2018-11-26T20:08:07.345Z,4.37
2018-11-26T20:10:36.796Z,4.36
2018-11-26T20:13:05.292Z,4.25
2018-11-26T20:15:33.564Z,4.26
2018-11-26T20:18:01.698Z,4.27
2018-11-26T20:20:30.047Z,4.16
2018-11-26T20:22:58.287Z,4.15
2018-11-26T20:25:26.483Z,4.13
2018-11-26T20:27:56.032Z,4.42
2018-11-26T20:30:23.236Z,4.46
2018-11-26T20:32:51.468Z,4.23
2018-11-26T20:35:19.786Z,4.26
2018-11-26T20:37:48.044Z,4.39
2018-11-26T20:40:16.990Z,4.49
2018-11-26T20:42:50.744Z,4.46
2018-11-26T20:45:18.981Z,4.66
2018-11-26T20:47:48.135Z,4.64
2018-11-26T20:50:32.055Z,4.45
2018-11-26T20:53:00.230Z,4.31
2018-11-26T20:55:28.373Z,4.36
2018-11-26T20:57:56.921Z,4.27
2018-11-26T21:00:26.566Z,4.36
2018-11-26T21:02:56.133Z,4.34
2018-11-26T21:05:24.443Z,4.41
2018-11-26T21:07:52.763Z,4.71
2018-11-26T21:10:21.064Z,4.51
2018-11-26T21:12:49.234Z,4.24
2018-11-26T21:15:18.330Z,4.17
2018-11-26T21:17:48.716Z,4.17
2018-11-26T21:20:21.067Z,4.24
2018-11-26T21:22:49.302Z,4.16
2018-11-26T21:25:17.846Z,4.14
2018-11-26T21:27:46.194Z,4.09
2018-11-26T21:30:16.268Z,4.00
2018-11-26T21:32:44.459Z,4.00
2018-11-26T21:35:13.983Z,4.03
2018-11-26T21:37:43.299Z,3.96
2018-11-26T21:40:12.631Z,3.99
2018-11-26T21:42:40.767Z,4.00
2018-11-26T21:45:11.047Z,4.00
2018-11-26T21:47:39.195Z,3.98
2018-11-26T21:50:10.471Z,3.97
2018-11-26T21:52:38.783Z,3.96
2018-11-26T21:55:09.753Z,3.93
2018-11-26T21:57:37.910Z,3.93
2018-11-26T22:02:38.104Z,3.93
2018-11-26T22:05:06.342Z,3.96
2018-11-26T22:07:35.677Z,3.93
2018-11-26T22:10:02.787Z,3.92
2018-11-26T22:12:30.956Z,3.94
2018-11-26T22:14:59.159Z,4.03
2018-11-26T22:17:27.336Z,3.95
2018-11-26T22:19:55.498Z,3.94
2018-11-26T22:22:23.634Z,3.90
2018-11-26T22:24:51.902Z,3.93
2018-11-26T22:27:20.064Z,3.93
2018-11-26T22:29:48.264Z,3.91
2018-11-26T22:32:16.429Z,3.88
2018-11-26T22:34:44.592Z,3.90
2018-11-26T22:37:12.797Z,3.89
2018-11-26T22:39:41.082Z,3.87
2018-11-26T22:42:09.367Z,3.88
2018-11-26T22:44:37.502Z,3.86
2018-11-26T22:47:06.333Z,3.86
2018-11-26T22:49:34.505Z,3.86
2018-11-26T22:52:03.333Z,3.87
2018-11-26T22:54:31.507Z,3.84
2018-11-26T22:56:59.697Z,3.84
2018-11-26T22:59:27.931Z,3.85
2018-11-26T23:01:56.123Z,3.87
2018-11-26T23:04:24.275Z,3.89
2018-11-26T23:06:52.454Z,3.85
2018-11-26T23:09:20.626Z,3.88
2018-11-26T23:11:48.780Z,3.89
2018-11-26T23:14:16.926Z,3.85
2018-11-26T23:16:45.083Z,3.89
2018-11-26T23:19:13.300Z,4.02
2018-11-26T23:21:41.458Z,3.92
2018-11-26T23:24:09.631Z,3.86
2018-11-26T23:26:37.778Z,3.88
2018-11-26T23:29:06.263Z,3.84
2018-11-26T23:31:34.414Z,3.86
2018-11-26T23:34:02.633Z,3.79
2018-11-26T23:36:30.865Z,3.77
2018-11-26T23:38:59.024Z,3.79
2018-11-26T23:41:27.173Z,3.75
2018-11-26T23:43:55.310Z,3.83
2018-11-26T23:46:23.584Z,3.77
2018-11-26T23:48:51.722Z,3.72
2018-11-26T23:51:19.998Z,3.76
2018-11-26T23:53:48.198Z,3.73
2018-11-26T23:56:16.393Z,3.70
2018-11-26T23:58:44.565Z,3.71
